Terminal Aerodrome Forecast
Issued by NWS Jacksonville, FL

Current Version | Previous Version | Text Only | Print | Product List | Glossary On
Versions: 1 2 3 4 5 6 7 8 9 10 11 12 13 14 15 16 17 18 19 20 21 22 23 24
000
FTUS42 KJAX 280230 AAA
TAFGNV
TAF AMD
KGNV 280230Z 2803/2824 03012KT P6SM BKN025 OVC150
     FM280600 02009KT P6SM VCSH SCT015 BKN030 OVC250
     FM280900 02011KT 6SM -RA BR OVC012
     FM281300 03016G24KT 5SM -RA BR FEW004 SCT007 BKN012
      TEMPO 2813/2817 3SM RA SCT004 BKN007
     FM281700 03011G17KT 6SM -RA BKN008 OVC012=

USA.gov is the U.S. government's official web portal to all federal, state and local government web resources and services.